sensor_id;sensor_type;location;lat;lon;timestamp;P1;durP1;ratioP1;P2;durP2;ratioP2
35795;SDS011;21916;52.428;13.302;2024-03-25T00:01:34;4.20;;;2.10;;
35795;SDS011;21916;52.428;13.302;2024-03-25T00:04:00;3.78;;;2.17;;
35795;SDS011;21916;52.428;13.302;2024-03-25T00:06:26;4.18;;;2.30;;
35795;SDS011;21916;52.428;13.302;2024-03-25T00:08:52;3.47;;;2.35;;
35795;SDS011;21916;52.428;13.302;2024-03-25T00:11:17;6.53;;;2.80;;
35795;SDS011;21916;52.428;13.302;2024-03-25T00:13:43;5.80;;;2.60;;
35795;SDS011;21916;52.428;13.302;2024-03-25T00:16:09;3.22;;;2.17;;
35795;SDS011;21916;52.428;13.302;2024-03-25T00:18:34;3.67;;;2.50;;
35795;SDS011;21916;52.428;13.302;2024-03-25T00:21:00;5.07;;;2.30;;
35795;SDS011;21916;52.428;13.302;2024-03-25T00:23:26;3.00;;;2.03;;
35795;SDS011;21916;52.428;13.302;2024-03-25T00:25:51;3.15;;;2.10;;
35795;SDS011;21916;52.428;13.302;2024-03-25T00:28:17;3.88;;;2.30;;
35795;SDS011;21916;52.428;13.302;2024-03-25T00:30:44;5.32;;;3.00;;
35795;SDS011;21916;52.428;13.302;2024-03-25T00:33:10;4.53;;;2.90;;
35795;SDS011;21916;52.428;13.302;2024-03-25T00:35:36;6.30;;;2.75;;
35795;SDS011;21916;52.428;13.302;2024-03-25T00:38:02;5.05;;;2.22;;
35795;SDS011;21916;52.428;13.302;2024-03-25T00:40:28;4.50;;;2.40;;
35795;SDS011;21916;52.428;13.302;2024-03-25T00:42:53;6.10;;;3.05;;
35795;SDS011;21916;52.428;13.302;2024-03-25T00:45:19;4.95;;;2.85;;
35795;SDS011;21916;52.428;13.302;2024-03-25T00:47:45;6.80;;;3.42;;
35795;SDS011;21916;52.428;13.302;2024-03-25T00:50:10;5.78;;;2.53;;
35795;SDS011;21916;52.428;13.302;2024-03-25T00:52:36;5.70;;;3.58;;
35795;SDS011;21916;52.428;13.302;2024-03-25T00:55:02;5.53;;;2.90;;
35795;SDS011;21916;52.428;13.302;2024-03-25T00:57:28;6.47;;;2.97;;
35795;SDS011;21916;52.428;13.302;2024-03-25T00:59:55;4.95;;;3.08;;
35795;SDS011;21916;52.428;13.302;2024-03-25T01:02:20;5.95;;;2.90;;
35795;SDS011;21916;52.428;13.302;2024-03-25T01:04:46;6.68;;;3.67;;
35795;SDS011;21916;52.428;13.302;2024-03-25T01:07:13;6.93;;;2.90;;
35795;SDS011;21916;52.428;13.302;2024-03-25T01:09:38;6.75;;;2.92;;
35795;SDS011;21916;52.428;13.302;2024-03-25T01:12:04;6.20;;;3.22;;
35795;SDS011;21916;52.428;13.302;2024-03-25T01:14:30;5.50;;;2.45;;
35795;SDS011;21916;52.428;13.302;2024-03-25T01:16:56;7.80;;;3.58;;
35795;SDS011;21916;52.428;13.302;2024-03-25T01:19:21;6.65;;;2.78;;
35795;SDS011;21916;52.428;13.302;2024-03-25T01:21:47;4.75;;;2.95;;
35795;SDS011;21916;52.428;13.302;2024-03-25T01:24:14;6.90;;;3.03;;
35795;SDS011;21916;52.428;13.302;2024-03-25T01:26:41;4.97;;;2.72;;
35795;SDS011;21916;52.428;13.302;2024-03-25T01:29:06;5.28;;;2.80;;
35795;SDS011;21916;52.428;13.302;2024-03-25T01:31:32;5.30;;;2.47;;
35795;SDS011;21916;52.428;13.302;2024-03-25T01:33:59;3.15;;;1.98;;
35795;SDS011;21916;52.428;13.302;2024-03-25T01:36:25;4.00;;;1.67;;
35795;SDS011;21916;52.428;13.302;2024-03-25T01:38:52;2.70;;;1.65;;
35795;SDS011;21916;52.428;13.302;2024-03-25T01:41:20;3.88;;;2.08;;
35795;SDS011;21916;52.428;13.302;2024-03-25T01:43:48;4.63;;;2.45;;
35795;SDS011;21916;52.428;13.302;2024-03-25T01:46:14;3.22;;;1.85;;
35795;SDS011;21916;52.428;13.302;2024-03-25T01:48:42;6.40;;;2.33;;
35795;SDS011;21916;52.428;13.302;2024-03-25T01:51:09;5.47;;;2.33;;
35795;SDS011;21916;52.428;13.302;2024-03-25T01:53:35;5.70;;;2.13;;
35795;SDS011;21916;52.428;13.302;2024-03-25T01:56:01;6.50;;;3.03;;
35795;SDS011;21916;52.428;13.302;2024-03-25T01:58:30;6.15;;;2.53;;
35795;SDS011;21916;52.428;13.302;2024-03-25T02:00:57;4.93;;;2.15;;
35795;SDS011;21916;52.428;13.302;2024-03-25T02:03:26;7.65;;;2.70;;
35795;SDS011;21916;52.428;13.302;2024-03-25T02:06:02;7.47;;;2.63;;
35795;SDS011;21916;52.428;13.302;2024-03-25T02:08:31;5.72;;;2.58;;
35795;SDS011;21916;52.428;13.302;2024-03-25T02:10:58;4.97;;;2.67;;
35795;SDS011;21916;52.428;13.302;2024-03-25T02:13:25;10.85;;;3.20;;
35795;SDS011;21916;52.428;13.302;2024-03-25T02:15:52;6.00;;;2.45;;
35795;SDS011;21916;52.428;13.302;2024-03-25T02:18:19;7.43;;;3.08;;
35795;SDS011;21916;52.428;13.302;2024-03-25T02:20:47;6.68;;;3.33;;
35795;SDS011;21916;52.428;13.302;2024-03-25T02:23:13;6.85;;;4.15;;
35795;SDS011;21916;52.428;13.302;2024-03-25T02:25:40;6.60;;;3.58;;
35795;SDS011;21916;52.428;13.302;2024-03-25T02:28:08;8.05;;;3.33;;
35795;SDS011;21916;52.428;13.302;2024-03-25T02:30:34;8.35;;;3.45;;
35795;SDS011;21916;52.428;13.302;2024-03-25T02:33:02;4.95;;;3.00;;
35795;SDS011;21916;52.428;13.302;2024-03-25T02:35:28;9.45;;;3.60;;
35795;SDS011;21916;52.428;13.302;2024-03-25T02:37:58;4.50;;;2.28;;
35795;SDS011;21916;52.428;13.302;2024-03-25T02:40:24;6.35;;;2.53;;
35795;SDS011;21916;52.428;13.302;2024-03-25T02:42:51;9.00;;;3.30;;
35795;SDS011;21916;52.428;13.302;2024-03-25T02:45:17;3.33;;;1.38;;
35795;SDS011;21916;52.428;13.302;2024-03-25T02:47:43;4.32;;;2.45;;
35795;SDS011;21916;52.428;13.302;2024-03-25T02:50:09;5.35;;;2.47;;
35795;SDS011;21916;52.428;13.302;2024-03-25T02:52:34;7.38;;;2.58;;
35795;SDS011;21916;52.428;13.302;2024-03-25T02:55:01;2.83;;;1.88;;
35795;SDS011;21916;52.428;13.302;2024-03-25T02:57:27;6.30;;;2.15;;
35795;SDS011;21916;52.428;13.302;2024-03-25T02:59:53;8.65;;;2.67;;
35795;SDS011;21916;52.428;13.302;2024-03-25T03:02:18;4.88;;;1.98;;
35795;SDS011;21916;52.428;13.302;2024-03-25T03:04:44;5.22;;;1.88;;
35795;SDS011;21916;52.428;13.302;2024-03-25T03:07:10;5.78;;;2.17;;
35795;SDS011;21916;52.428;13.302;2024-03-25T03:09:36;4.63;;;2.13;;
35795;SDS011;21916;52.428;13.302;2024-03-25T03:12:02;5.13;;;2.25;;
35795;SDS011;21916;52.428;13.302;2024-03-25T03:14:28;3.05;;;1.42;;
35795;SDS011;21916;52.428;13.302;2024-03-25T03:16:53;3.40;;;1.77;;
35795;SDS011;21916;52.428;13.302;2024-03-25T03:19:23;8.38;;;2.00;;
35795;SDS011;21916;52.428;13.302;2024-03-25T03:21:52;7.90;;;1.92;;
35795;SDS011;21916;52.428;13.302;2024-03-25T03:24:18;2.67;;;1.55;;
35795;SDS011;21916;52.428;13.302;2024-03-25T03:26:44;4.05;;;1.20;;
35795;SDS011;21916;52.428;13.302;2024-03-25T03:29:10;5.38;;;2.15;;
35795;SDS011;21916;52.428;13.302;2024-03-25T03:31:36;5.47;;;1.85;;
35795;SDS011;21916;52.428;13.302;2024-03-25T03:34:02;3.92;;;1.92;;
35795;SDS011;21916;52.428;13.302;2024-03-25T03:36:28;4.63;;;1.40;;
35795;SDS011;21916;52.428;13.302;2024-03-25T03:38:53;3.45;;;2.05;;
35795;SDS011;21916;52.428;13.302;2024-03-25T03:41:21;3.65;;;1.38;;
35795;SDS011;21916;52.428;13.302;2024-03-25T03:43:47;7.80;;;2.03;;
35795;SDS011;21916;52.428;13.302;2024-03-25T03:46:13;3.80;;;1.98;;
35795;SDS011;21916;52.428;13.302;2024-03-25T03:48:39;2.78;;;1.65;;
35795;SDS011;21916;52.428;13.302;2024-03-25T03:51:05;6.57;;;1.73;;
35795;SDS011;21916;52.428;13.302;2024-03-25T03:53:32;5.15;;;1.55;;
35795;SDS011;21916;52.428;13.302;2024-03-25T03:55:59;3.60;;;1.30;;
35795;SDS011;21916;52.428;13.302;2024-03-25T04:00:59;3.03;;;1.55;;
35795;SDS011;21916;52.428;13.302;2024-03-25T04:03:25;4.15;;;1.83;;
35795;SDS011;21916;52.428;13.302;2024-03-25T04:05:52;6.70;;;1.75;;
35795;SDS011;21916;52.428;13.302;2024-03-25T04:08:18;3.97;;;1.83;;
35795;SDS011;21916;52.428;13.302;2024-03-25T04:10:44;3.70;;;1.83;;
35795;SDS011;21916;52.428;13.302;2024-03-25T04:13:10;3.08;;;1.58;;
35795;SDS011;21916;52.428;13.302;2024-03-25T04:15:36;4.22;;;1.50;;
35795;SDS011;21916;52.428;13.302;2024-03-25T04:18:03;3.45;;;1.33;;
35795;SDS011;21916;52.428;13.302;2024-03-25T04:20:30;6.93;;;2.63;;
35795;SDS011;21916;52.428;13.302;2024-03-25T04:23:05;3.35;;;1.77;;
35795;SDS011;21916;52.428;13.302;2024-03-25T04:25:34;3.63;;;1.80;;
35795;SDS011;21916;52.428;13.302;2024-03-25T04:28:04;4.95;;;2.28;;
35795;SDS011;21916;52.428;13.302;2024-03-25T04:30:33;6.70;;;2.05;;
35795;SDS011;21916;52.428;13.302;2024-03-25T04:33:00;5.47;;;1.70;;
35795;SDS011;21916;52.428;13.302;2024-03-25T04:35:26;3.78;;;1.63;;
35795;SDS011;21916;52.428;13.302;2024-03-25T04:37:52;5.70;;;1.40;;
35795;SDS011;21916;52.428;13.302;2024-03-25T04:40:20;7.05;;;2.45;;
35795;SDS011;21916;52.428;13.302;2024-03-25T04:42:46;8.40;;;1.75;;
35795;SDS011;21916;52.428;13.302;2024-03-25T04:45:12;2.85;;;1.70;;
35795;SDS011;21916;52.428;13.302;2024-03-25T04:47:38;3.42;;;1.15;;
35795;SDS011;21916;52.428;13.302;2024-03-25T04:50:04;4.65;;;1.73;;
35795;SDS011;21916;52.428;13.302;2024-03-25T04:52:31;5.07;;;1.95;;
35795;SDS011;21916;52.428;13.302;2024-03-25T04:54:58;7.10;;;2.40;;
35795;SDS011;21916;52.428;13.302;2024-03-25T04:57:24;4.45;;;2.17;;
35795;SDS011;21916;52.428;13.302;2024-03-25T04:59:50;3.97;;;2.10;;
35795;SDS011;21916;52.428;13.302;2024-03-25T05:02:15;7.35;;;2.90;;
35795;SDS011;21916;52.428;13.302;2024-03-25T05:04:41;4.43;;;1.75;;
35795;SDS011;21916;52.428;13.302;2024-03-25T05:07:07;6.25;;;2.13;;
35795;SDS011;21916;52.428;13.302;2024-03-25T05:09:33;3.75;;;2.10;;
35795;SDS011;21916;52.428;13.302;2024-03-25T05:11:58;5.85;;;2.80;;
35795;SDS011;21916;52.428;13.302;2024-03-25T05:14:24;10.70;;;2.95;;
35795;SDS011;21916;52.428;13.302;2024-03-25T05:16:50;5.55;;;2.28;;
35795;SDS011;21916;52.428;13.302;2024-03-25T05:19:17;2.72;;;2.05;;
35795;SDS011;21916;52.428;13.302;2024-03-25T05:21:43;9.35;;;3.40;;
35795;SDS011;21916;52.428;13.302;2024-03-25T05:24:09;6.55;;;1.88;;
35795;SDS011;21916;52.428;13.302;2024-03-25T05:26:36;4.60;;;2.25;;
35795;SDS011;21916;52.428;13.302;2024-03-25T05:29:02;6.43;;;3.20;;
35795;SDS011;21916;52.428;13.302;2024-03-25T05:31:27;13.65;;;2.38;;
35795;SDS011;21916;52.428;13.302;2024-03-25T05:33:53;7.38;;;2.95;;
35795;SDS011;21916;52.428;13.302;2024-03-25T05:36:19;4.18;;;2.17;;
35795;SDS011;21916;52.428;13.302;2024-03-25T05:38:44;6.82;;;3.72;;
35795;SDS011;21916;52.428;13.302;2024-03-25T05:41:10;6.50;;;3.58;;
35795;SDS011;21916;52.428;13.302;2024-03-25T05:43:36;6.22;;;3.53;;
35795;SDS011;21916;52.428;13.302;2024-03-25T05:46:03;9.35;;;3.40;;
35795;SDS011;21916;52.428;13.302;2024-03-25T05:48:29;9.10;;;4.15;;
35795;SDS011;21916;52.428;13.302;2024-03-25T05:51:05;4.78;;;1.70;;
35795;SDS011;21916;52.428;13.302;2024-03-25T05:53:34;12.25;;;3.92;;
35795;SDS011;21916;52.428;13.302;2024-03-25T05:56:00;10.25;;;4.05;;
35795;SDS011;21916;52.428;13.302;2024-03-25T05:58:26;9.55;;;3.42;;
35795;SDS011;21916;52.428;13.302;2024-03-25T06:00:53;5.70;;;2.47;;
35795;SDS011;21916;52.428;13.302;2024-03-25T06:03:22;7.63;;;2.72;;
35795;SDS011;21916;52.428;13.302;2024-03-25T06:05:48;11.73;;;3.72;;
35795;SDS011;21916;52.428;13.302;2024-03-25T06:08:14;10.25;;;2.85;;
35795;SDS011;21916;52.428;13.302;2024-03-25T06:10:46;9.07;;;3.72;;
35795;SDS011;21916;52.428;13.302;2024-03-25T06:13:12;5.35;;;2.47;;
35795;SDS011;21916;52.428;13.302;2024-03-25T06:15:38;7.97;;;3.28;;
35795;SDS011;21916;52.428;13.302;2024-03-25T06:18:03;11.30;;;2.78;;
35795;SDS011;21916;52.428;13.302;2024-03-25T06:20:29;5.68;;;2.55;;
35795;SDS011;21916;52.428;13.302;2024-03-25T06:22:55;10.70;;;3.33;;
35795;SDS011;21916;52.428;13.302;2024-03-25T06:25:20;6.70;;;1.83;;
35795;SDS011;21916;52.428;13.302;2024-03-25T06:27:46;7.40;;;3.25;;
35795;SDS011;21916;52.428;13.302;2024-03-25T06:30:13;7.20;;;3.35;;
35795;SDS011;21916;52.428;13.302;2024-03-25T06:32:57;10.38;;;3.40;;
35795;SDS011;21916;52.428;13.302;2024-03-25T06:35:44;4.70;;;2.30;;
35795;SDS011;21916;52.428;13.302;2024-03-25T06:38:10;7.90;;;3.00;;
35795;SDS011;21916;52.428;13.302;2024-03-25T06:40:36;6.05;;;2.83;;
35795;SDS011;21916;52.428;13.302;2024-03-25T06:43:03;8.00;;;3.20;;
35795;SDS011;21916;52.428;13.302;2024-03-25T06:45:29;9.77;;;2.58;;
35795;SDS011;21916;52.428;13.302;2024-03-25T06:47:55;7.47;;;2.33;;
35795;SDS011;21916;52.428;13.302;2024-03-25T06:50:21;9.57;;;1.75;;
35795;SDS011;21916;52.428;13.302;2024-03-25T06:52:47;3.20;;;1.88;;
35795;SDS011;21916;52.428;13.302;2024-03-25T06:55:13;4.82;;;2.55;;
35795;SDS011;21916;52.428;13.302;2024-03-25T06:57:39;6.82;;;2.65;;
35795;SDS011;21916;52.428;13.302;2024-03-25T07:00:05;4.10;;;1.83;;
35795;SDS011;21916;52.428;13.302;2024-03-25T07:02:35;12.38;;;3.00;;
35795;SDS011;21916;52.428;13.302;2024-03-25T07:05:01;12.32;;;2.40;;
35795;SDS011;21916;52.428;13.302;2024-03-25T07:07:26;5.40;;;2.47;;
35795;SDS011;21916;52.428;13.302;2024-03-25T07:09:52;5.82;;;2.55;;
35795;SDS011;21916;52.428;13.302;2024-03-25T07:12:19;5.75;;;2.33;;
35795;SDS011;21916;52.428;13.302;2024-03-25T07:14:46;5.35;;;2.28;;
35795;SDS011;21916;52.428;13.302;2024-03-25T07:17:12;4.20;;;2.00;;
35795;SDS011;21916;52.428;13.302;2024-03-25T07:19:37;7.40;;;2.50;;
35795;SDS011;21916;52.428;13.302;2024-03-25T07:22:03;7.80;;;1.85;;
35795;SDS011;21916;52.428;13.302;2024-03-25T07:24:29;5.68;;;2.88;;
35795;SDS011;21916;52.428;13.302;2024-03-25T07:26:54;11.15;;;5.28;;
35795;SDS011;21916;52.428;13.302;2024-03-25T07:29:20;5.47;;;2.20;;
35795;SDS011;21916;52.428;13.302;2024-03-25T07:31:45;13.23;;;3.33;;
35795;SDS011;21916;52.428;13.302;2024-03-25T07:34:11;7.53;;;2.75;;
35795;SDS011;21916;52.428;13.302;2024-03-25T07:36:37;9.85;;;3.40;;
35795;SDS011;21916;52.428;13.302;2024-03-25T07:39:04;5.88;;;2.95;;
35795;SDS011;21916;52.428;13.302;2024-03-25T07:41:31;3.83;;;2.47;;
35795;SDS011;21916;52.428;13.302;2024-03-25T07:43:57;4.97;;;2.35;;
35795;SDS011;21916;52.428;13.302;2024-03-25T07:46:22;6.47;;;2.83;;
35795;SDS011;21916;52.428;13.302;2024-03-25T07:48:48;4.35;;;1.92;;
35795;SDS011;21916;52.428;13.302;2024-03-25T07:51:14;7.50;;;1.58;;
35795;SDS011;21916;52.428;13.302;2024-03-25T07:53:40;4.00;;;2.13;;
35795;SDS011;21916;52.428;13.302;2024-03-25T07:56:05;7.18;;;3.05;;
35795;SDS011;21916;52.428;13.302;2024-03-25T07:58:31;4.95;;;2.50;;
35795;SDS011;21916;52.428;13.302;2024-03-25T08:00:57;8.50;;;2.67;;
35795;SDS011;21916;52.428;13.302;2024-03-25T08:03:22;5.30;;;2.35;;
35795;SDS011;21916;52.428;13.302;2024-03-25T08:05:50;7.40;;;3.78;;
35795;SDS011;21916;52.428;13.302;2024-03-25T08:08:17;6.22;;;3.58;;
35795;SDS011;21916;52.428;13.302;2024-03-25T08:10:43;10.35;;;2.55;;
35795;SDS011;21916;52.428;13.302;2024-03-25T08:13:09;8.88;;;2.78;;
35795;SDS011;21916;52.428;13.302;2024-03-25T08:15:34;5.35;;;2.70;;
35795;SDS011;21916;52.428;13.302;2024-03-25T08:18:00;11.52;;;3.55;;
35795;SDS011;21916;52.428;13.302;2024-03-25T08:20:26;4.90;;;3.00;;
35795;SDS011;21916;52.428;13.302;2024-03-25T08:22:52;4.75;;;2.00;;
35795;SDS011;21916;52.428;13.302;2024-03-25T08:25:17;6.88;;;2.97;;
35795;SDS011;21916;52.428;13.302;2024-03-25T08:27:43;7.05;;;3.08;;
35795;SDS011;21916;52.428;13.302;2024-03-25T08:30:09;6.63;;;2.30;;
35795;SDS011;21916;52.428;13.302;2024-03-25T08:32:35;7.28;;;3.13;;
35795;SDS011;21916;52.428;13.302;2024-03-25T08:35:01;5.32;;;2.53;;
35795;SDS011;21916;52.428;13.302;2024-03-25T08:37:27;6.00;;;2.88;;
35795;SDS011;21916;52.428;13.302;2024-03-25T08:39:52;5.05;;;1.90;;
35795;SDS011;21916;52.428;13.302;2024-03-25T08:42:18;6.63;;;2.55;;
35795;SDS011;21916;52.428;13.302;2024-03-25T08:44:44;3.42;;;2.03;;
35795;SDS011;21916;52.428;13.302;2024-03-25T08:47:09;4.40;;;1.95;;
35795;SDS011;21916;52.428;13.302;2024-03-25T08:49:35;8.15;;;2.53;;
35795;SDS011;21916;52.428;13.302;2024-03-25T08:52:01;4.85;;;2.40;;
35795;SDS011;21916;52.428;13.302;2024-03-25T08:54:28;5.38;;;2.33;;
35795;SDS011;21916;52.428;13.302;2024-03-25T08:56:54;4.32;;;2.67;;
35795;SDS011;21916;52.428;13.302;2024-03-25T08:59:19;5.13;;;2.55;;
35795;SDS011;21916;52.428;13.302;2024-03-25T09:01:45;5.30;;;2.05;;
35795;SDS011;21916;52.428;13.302;2024-03-25T09:04:11;5.22;;;2.30;;
35795;SDS011;21916;52.428;13.302;2024-03-25T09:06:36;6.65;;;2.90;;
35795;SDS011;21916;52.428;13.302;2024-03-25T09:09:03;6.43;;;1.90;;
35795;SDS011;21916;52.428;13.302;2024-03-25T09:11:47;4.00;;;2.30;;
35795;SDS011;21916;52.428;13.302;2024-03-25T09:14:13;5.90;;;2.22;;
35795;SDS011;21916;52.428;13.302;2024-03-25T09:16:39;12.85;;;2.95;;
35795;SDS011;21916;52.428;13.302;2024-03-25T09:19:05;5.28;;;2.33;;
35795;SDS011;21916;52.428;13.302;2024-03-25T09:21:30;4.47;;;2.22;;
35795;SDS011;21916;52.428;13.302;2024-03-25T09:23:56;6.65;;;2.83;;
35795;SDS011;21916;52.428;13.302;2024-03-25T09:26:23;3.70;;;2.10;;
35795;SDS011;21916;52.428;13.302;2024-03-25T09:28:49;4.15;;;2.17;;
35795;SDS011;21916;52.428;13.302;2024-03-25T09:31:15;5.47;;;2.30;;
35795;SDS011;21916;52.428;13.302;2024-03-25T09:33:41;5.55;;;2.15;;
35795;SDS011;21916;52.428;13.302;2024-03-25T09:36:09;7.25;;;2.50;;
35795;SDS011;21916;52.428;13.302;2024-03-25T09:38:36;4.88;;;2.30;;
35795;SDS011;21916;52.428;13.302;2024-03-25T09:41:02;6.07;;;2.25;;
35795;SDS011;21916;52.428;13.302;2024-03-25T09:43:32;6.57;;;2.40;;
35795;SDS011;21916;52.428;13.302;2024-03-25T09:46:05;10.20;;;3.10;;
35795;SDS011;21916;52.428;13.302;2024-03-25T09:48:34;5.55;;;2.40;;
35795;SDS011;21916;52.428;13.302;2024-03-25T09:51:02;9.73;;;2.25;;
35795;SDS011;21916;52.428;13.302;2024-03-25T09:53:29;2.65;;;1.73;;
35795;SDS011;21916;52.428;13.302;2024-03-25T09:55:55;3.83;;;1.20;;
35795;SDS011;21916;52.428;13.302;2024-03-25T09:58:22;4.00;;;2.00;;
35795;SDS011;21916;52.428;13.302;2024-03-25T10:00:50;2.97;;;1.80;;
35795;SDS011;21916;52.428;13.302;2024-03-25T10:03:16;4.05;;;1.80;;
35795;SDS011;21916;52.428;13.302;2024-03-25T10:05:42;2.45;;;1.40;;
35795;SDS011;21916;52.428;13.302;2024-03-25T10:08:08;2.50;;;0.82;;
35795;SDS011;21916;52.428;13.302;2024-03-25T10:10:34;3.10;;;1.10;;
35795;SDS011;21916;52.428;13.302;2024-03-25T10:12:59;3.80;;;1.85;;
35795;SDS011;21916;52.428;13.302;2024-03-25T10:15:26;4.32;;;1.15;;
35795;SDS011;21916;52.428;13.302;2024-03-25T10:17:52;2.97;;;1.38;;
35795;SDS011;21916;52.428;13.302;2024-03-25T10:20:18;4.65;;;1.33;;
35795;SDS011;21916;52.428;13.302;2024-03-25T10:22:44;5.20;;;1.67;;
35795;SDS011;21916;52.428;13.302;2024-03-25T10:25:21;0.60;;;0.60;;
35795;SDS011;21916;52.428;13.302;2024-03-25T10:27:55;2.22;;;1.42;;
35795;SDS011;21916;52.428;13.302;2024-03-25T10:30:24;2.22;;;1.38;;
35795;SDS011;21916;52.428;13.302;2024-03-25T10:32:57;2.35;;;1.10;;
35795;SDS011;21916;52.428;13.302;2024-03-25T10:35:27;2.78;;;1.45;;
35795;SDS011;21916;52.428;13.302;2024-03-25T10:37:55;1.42;;;0.50;;
35795;SDS011;21916;52.428;13.302;2024-03-25T10:40:28;7.15;;;1.63;;
35795;SDS011;21916;52.428;13.302;2024-03-25T10:42:58;2.70;;;1.20;;
35795;SDS011;21916;52.428;13.302;2024-03-25T10:45:27;3.65;;;1.48;;
35795;SDS011;21916;52.428;13.302;2024-03-25T10:47:56;2.30;;;1.10;;
35795;SDS011;21916;52.428;13.302;2024-03-25T10:50:28;2.15;;;0.93;;
35795;SDS011;21916;52.428;13.302;2024-03-25T10:52:54;4.28;;;1.13;;
35795;SDS011;21916;52.428;13.302;2024-03-25T10:55:22;5.20;;;1.30;;
35795;SDS011;21916;52.428;13.302;2024-03-25T10:57:47;2.13;;;1.13;;
35795;SDS011;21916;52.428;13.302;2024-03-25T11:00:14;3.85;;;1.30;;
35795;SDS011;21916;52.428;13.302;2024-03-25T11:02:44;5.25;;;1.40;;
35795;SDS011;21916;52.428;13.302;2024-03-25T11:05:10;1.73;;;1.10;;
35795;SDS011;21916;52.428;13.302;2024-03-25T11:07:36;3.25;;;1.38;;
35795;SDS011;21916;52.428;13.302;2024-03-25T11:10:07;1.50;;;0.90;;
35795;SDS011;21916;52.428;13.302;2024-03-25T11:12:37;2.03;;;1.05;;
35795;SDS011;21916;52.428;13.302;2024-03-25T11:15:05;1.80;;;1.40;;
35795;SDS011;21916;52.428;13.302;2024-03-25T11:17:35;2.63;;;1.15;;
35795;SDS011;21916;52.428;13.302;2024-03-25T11:20:15;5.70;;;1.30;;
35795;SDS011;21916;52.428;13.302;2024-03-25T11:22:51;3.58;;;1.40;;
35795;SDS011;21916;52.428;13.302;2024-03-25T11:25:17;4.07;;;1.45;;
35795;SDS011;21916;52.428;13.302;2024-03-25T11:27:45;3.35;;;1.48;;
35795;SDS011;21916;52.428;13.302;2024-03-25T11:30:12;3.35;;;1.08;;
35795;SDS011;21916;52.428;13.302;2024-03-25T11:32:46;3.17;;;1.23;;
35795;SDS011;21916;52.428;13.302;2024-03-25T11:35:17;1.92;;;1.20;;
35795;SDS011;21916;52.428;13.302;2024-03-25T11:37:43;3.30;;;0.80;;
35795;SDS011;21916;52.428;13.302;2024-03-25T11:40:09;1.45;;;1.08;;
35795;SDS011;21916;52.428;13.302;2024-03-25T11:42:38;2.10;;;1.10;;
35795;SDS011;21916;52.428;13.302;2024-03-25T11:45:07;3.38;;;1.00;;
35795;SDS011;21916;52.428;13.302;2024-03-25T11:47:40;3.30;;;1.23;;
35795;SDS011;21916;52.428;13.302;2024-03-25T11:50:10;1.75;;;0.80;;
35795;SDS011;21916;52.428;13.302;2024-03-25T11:52:37;3.17;;;1.02;;
35795;SDS011;21916;52.428;13.302;2024-03-25T11:55:05;3.22;;;1.25;;
35795;SDS011;21916;52.428;13.302;2024-03-25T11:57:33;2.15;;;0.85;;
35795;SDS011;21916;52.428;13.302;2024-03-25T12:00:00;3.22;;;1.08;;
35795;SDS011;21916;52.428;13.302;2024-03-25T12:02:38;3.95;;;0.82;;
35795;SDS011;21916;52.428;13.302;2024-03-25T12:05:08;5.45;;;1.08;;
35795;SDS011;21916;52.428;13.302;2024-03-25T12:07:35;2.88;;;0.60;;
35795;SDS011;21916;52.428;13.302;2024-03-25T12:10:01;1.98;;;0.75;;
35795;SDS011;21916;52.428;13.302;2024-03-25T12:12:45;0.90;;;0.57;;
35795;SDS011;21916;52.428;13.302;2024-03-25T12:15:12;2.22;;;0.73;;
35795;SDS011;21916;52.428;13.302;2024-03-25T12:17:38;5.32;;;0.75;;
35795;SDS011;21916;52.428;13.302;2024-03-25T12:20:07;2.80;;;0.98;;
35795;SDS011;21916;52.428;13.302;2024-03-25T12:22:34;1.60;;;0.75;;
35795;SDS011;21916;52.428;13.302;2024-03-25T12:25:01;1.85;;;0.63;;
35795;SDS011;21916;52.428;13.302;2024-03-25T12:27:35;3.65;;;1.15;;
35795;SDS011;21916;52.428;13.302;2024-03-25T12:30:06;1.05;;;0.52;;
35795;SDS011;21916;52.428;13.302;2024-03-25T12:35:13;0.93;;;0.50;;
35795;SDS011;21916;52.428;13.302;2024-03-25T12:37:45;0.80;;;0.50;;
35795;SDS011;21916;52.428;13.302;2024-03-25T12:40:12;0.93;;;0.55;;
35795;SDS011;21916;52.428;13.302;2024-03-25T12:42:51;1.15;;;0.70;;
35795;SDS011;21916;52.428;13.302;2024-03-25T12:45:18;0.60;;;0.52;;
35795;SDS011;21916;52.428;13.302;2024-03-25T12:47:46;0.60;;;0.40;;
35795;SDS011;21916;52.428;13.302;2024-03-25T12:50:12;1.25;;;0.47;;
35795;SDS011;21916;52.428;13.302;2024-03-25T12:52:38;2.47;;;0.60;;
35795;SDS011;21916;52.428;13.302;2024-03-25T12:55:04;1.27;;;0.55;;
35795;SDS011;21916;52.428;13.302;2024-03-25T12:57:30;3.38;;;0.70;;
35795;SDS011;21916;52.428;13.302;2024-03-25T12:59:56;1.02;;;0.60;;
35795;SDS011;21916;52.428;13.302;2024-03-25T13:02:21;2.85;;;0.60;;
35795;SDS011;21916;52.428;13.302;2024-03-25T13:04:48;0.80;;;0.60;;
35795;SDS011;21916;52.428;13.302;2024-03-25T13:07:14;2.22;;;0.45;;
35795;SDS011;21916;52.428;13.302;2024-03-25T13:09:40;1.38;;;0.50;;
35795;SDS011;21916;52.428;13.302;2024-03-25T13:12:05;1.90;;;0.40;;
35795;SDS011;21916;52.428;13.302;2024-03-25T13:14:31;2.30;;;0.45;;
35795;SDS011;21916;52.428;13.302;2024-03-25T13:16:57;1.45;;;0.60;;
35795;SDS011;21916;52.428;13.302;2024-03-25T13:19:26;1.17;;;0.80;;
35795;SDS011;21916;52.428;13.302;2024-03-25T13:21:55;2.50;;;0.70;;
35795;SDS011;21916;52.428;13.302;2024-03-25T13:24:20;1.13;;;0.82;;
35795;SDS011;21916;52.428;13.302;2024-03-25T13:26:46;1.05;;;0.47;;
35795;SDS011;21916;52.428;13.302;2024-03-25T13:29:15;1.48;;;0.43;;
35795;SDS011;21916;52.428;13.302;2024-03-25T13:31:41;1.42;;;0.85;;
35795;SDS011;21916;52.428;13.302;2024-03-25T13:34:07;2.35;;;0.85;;
35795;SDS011;21916;52.428;13.302;2024-03-25T13:36:33;1.23;;;0.60;;
35795;SDS011;21916;52.428;13.302;2024-03-25T13:38:58;1.92;;;0.68;;
35795;SDS011;21916;52.428;13.302;2024-03-25T13:41:34;1.48;;;0.60;;
35795;SDS011;21916;52.428;13.302;2024-03-25T13:44:00;2.30;;;0.70;;
35795;SDS011;21916;52.428;13.302;2024-03-25T13:46:26;2.38;;;1.02;;
35795;SDS011;21916;52.428;13.302;2024-03-25T13:48:52;1.10;;;0.80;;
35795;SDS011;21916;52.428;13.302;2024-03-25T13:51:17;1.00;;;0.52;;
35795;SDS011;21916;52.428;13.302;2024-03-25T13:53:43;2.55;;;0.63;;
35795;SDS011;21916;52.428;13.302;2024-03-25T13:56:09;1.92;;;0.63;;
35795;SDS011;21916;52.428;13.302;2024-03-25T13:58:35;1.00;;;0.47;;
35795;SDS011;21916;52.428;13.302;2024-03-25T14:01:01;1.70;;;0.65;;
35795;SDS011;21916;52.428;13.302;2024-03-25T14:03:27;1.13;;;0.60;;
35795;SDS011;21916;52.428;13.302;2024-03-25T14:05:52;1.77;;;0.82;;
35795;SDS011;21916;52.428;13.302;2024-03-25T14:08:18;1.88;;;1.15;;
35795;SDS011;21916;52.428;13.302;2024-03-25T14:10:44;2.53;;;0.75;;
35795;SDS011;21916;52.428;13.302;2024-03-25T14:13:10;1.98;;;0.70;;
35795;SDS011;21916;52.428;13.302;2024-03-25T14:15:36;1.00;;;0.50;;
35795;SDS011;21916;52.428;13.302;2024-03-25T14:18:02;4.00;;;1.15;;
35795;SDS011;21916;52.428;13.302;2024-03-25T14:20:29;1.88;;;0.70;;
35795;SDS011;21916;52.428;13.302;2024-03-25T14:22:56;0.82;;;0.50;;
35795;SDS011;21916;52.428;13.302;2024-03-25T14:25:21;0.60;;;0.60;;
35795;SDS011;21916;52.428;13.302;2024-03-25T14:27:47;1.88;;;0.63;;
35795;SDS011;21916;52.428;13.302;2024-03-25T14:30:13;1.42;;;0.70;;
35795;SDS011;21916;52.428;13.302;2024-03-25T14:32:40;1.85;;;0.88;;
35795;SDS011;21916;52.428;13.302;2024-03-25T14:35:06;3.83;;;0.70;;
35795;SDS011;21916;52.428;13.302;2024-03-25T14:37:32;1.67;;;0.47;;